sensor_id;sensor_type;location;lat;lon;timestamp;P1;durP1;ratioP1;P2;durP2;ratioP2
40695;SDS011;40425;51.102;17.208;2023-01-09T00:00:46;63.97;;;33.87;;
40695;SDS011;40425;51.102;17.208;2023-01-09T00:05:47;49.97;;;28.83;;
40695;SDS011;40425;51.102;17.208;2023-01-09T00:10:48;53.43;;;27.23;;
40695;SDS011;40425;51.102;17.208;2023-01-09T00:15:49;52.53;;;26.50;;
40695;SDS011;40425;51.102;17.208;2023-01-09T00:20:50;55.53;;;29.30;;
40695;SDS011;40425;51.102;17.208;2023-01-09T00:25:59;60.90;;;30.13;;
40695;SDS011;40425;51.102;17.208;2023-01-09T00:31:05;55.53;;;28.43;;
40695;SDS011;40425;51.102;17.208;2023-01-09T00:36:07;58.70;;;30.03;;
40695;SDS011;40425;51.102;17.208;2023-01-09T00:41:09;65.53;;;36.17;;
40695;SDS011;40425;51.102;17.208;2023-01-09T00:46:14;64.77;;;33.77;;
40695;SDS011;40425;51.102;17.208;2023-01-09T00:51:16;60.33;;;31.37;;
40695;SDS011;40425;51.102;17.208;2023-01-09T00:56:19;66.63;;;33.10;;
40695;SDS011;40425;51.102;17.208;2023-01-09T01:01:21;69.27;;;34.23;;
40695;SDS011;40425;51.102;17.208;2023-01-09T01:06:22;65.43;;;34.37;;
40695;SDS011;40425;51.102;17.208;2023-01-09T01:11:41;65.27;;;34.50;;
40695;SDS011;40425;51.102;17.208;2023-01-09T01:16:42;74.53;;;36.33;;
40695;SDS011;40425;51.102;17.208;2023-01-09T01:21:43;70.97;;;36.03;;
40695;SDS011;40425;51.102;17.208;2023-01-09T01:26:44;59.97;;;33.30;;
40695;SDS011;40425;51.102;17.208;2023-01-09T01:31:46;78.10;;;39.57;;
40695;SDS011;40425;51.102;17.208;2023-01-09T01:36:47;75.47;;;38.57;;
40695;SDS011;40425;51.102;17.208;2023-01-09T01:41:48;71.57;;;35.33;;
40695;SDS011;40425;51.102;17.208;2023-01-09T01:46:48;65.73;;;34.33;;
40695;SDS011;40425;51.102;17.208;2023-01-09T01:51:52;68.73;;;35.17;;
40695;SDS011;40425;51.102;17.208;2023-01-09T01:56:54;57.50;;;31.63;;
40695;SDS011;40425;51.102;17.208;2023-01-09T02:01:59;67.57;;;34.17;;
40695;SDS011;40425;51.102;17.208;2023-01-09T02:07:02;68.37;;;34.40;;
40695;SDS011;40425;51.102;17.208;2023-01-09T02:12:17;60.93;;;32.67;;
40695;SDS011;40425;51.102;17.208;2023-01-09T02:34:48;63.40;;;36.43;;
40695;SDS011;40425;51.102;17.208;2023-01-09T02:40:03;67.23;;;34.70;;
40695;SDS011;40425;51.102;17.208;2023-01-09T02:45:15;59.40;;;32.87;;
40695;SDS011;40425;51.102;17.208;2023-01-09T02:50:18;61.60;;;31.40;;
40695;SDS011;40425;51.102;17.208;2023-01-09T03:06:13;48.60;;;28.38;;
40695;SDS011;40425;51.102;17.208;2023-01-09T03:11:23;51.47;;;25.67;;
40695;SDS011;40425;51.102;17.208;2023-01-09T03:16:30;47.87;;;25.10;;
40695;SDS011;40425;51.102;17.208;2023-01-09T03:21:34;49.53;;;23.77;;
40695;SDS011;40425;51.102;17.208;2023-01-09T03:26:36;56.40;;;26.10;;
40695;SDS011;40425;51.102;17.208;2023-01-09T03:31:37;45.00;;;24.17;;
40695;SDS011;40425;51.102;17.208;2023-01-09T03:36:38;46.57;;;22.77;;
40695;SDS011;40425;51.102;17.208;2023-01-09T03:41:40;45.80;;;24.83;;
40695;SDS011;40425;51.102;17.208;2023-01-09T03:46:44;47.80;;;24.20;;
40695;SDS011;40425;51.102;17.208;2023-01-09T03:51:45;50.47;;;25.03;;
40695;SDS011;40425;51.102;17.208;2023-01-09T03:56:46;42.80;;;23.33;;
40695;SDS011;40425;51.102;17.208;2023-01-09T04:01:47;43.00;;;22.03;;
40695;SDS011;40425;51.102;17.208;2023-01-09T04:06:48;45.17;;;23.13;;
40695;SDS011;40425;51.102;17.208;2023-01-09T04:11:49;42.47;;;22.20;;
40695;SDS011;40425;51.102;17.208;2023-01-09T04:16:50;45.87;;;23.73;;
40695;SDS011;40425;51.102;17.208;2023-01-09T04:21:50;50.07;;;23.67;;
40695;SDS011;40425;51.102;17.208;2023-01-09T04:26:51;39.47;;;21.23;;
40695;SDS011;40425;51.102;17.208;2023-01-09T04:31:52;42.10;;;20.97;;
40695;SDS011;40425;51.102;17.208;2023-01-09T04:36:53;46.03;;;22.57;;
40695;SDS011;40425;51.102;17.208;2023-01-09T04:41:54;40.83;;;22.07;;
40695;SDS011;40425;51.102;17.208;2023-01-09T04:46:55;39.67;;;20.23;;
40695;SDS011;40425;51.102;17.208;2023-01-09T04:51:58;42.93;;;22.07;;
40695;SDS011;40425;51.102;17.208;2023-01-09T04:56:58;36.53;;;22.00;;
40695;SDS011;40425;51.102;17.208;2023-01-09T05:02:00;35.87;;;21.03;;
40695;SDS011;40425;51.102;17.208;2023-01-09T05:07:01;37.90;;;19.33;;
40695;SDS011;40425;51.102;17.208;2023-01-09T05:12:02;34.17;;;17.83;;
40695;SDS011;40425;51.102;17.208;2023-01-09T05:17:03;39.97;;;18.93;;
40695;SDS011;40425;51.102;17.208;2023-01-09T05:22:04;43.80;;;23.67;;
40695;SDS011;40425;51.102;17.208;2023-01-09T05:27:05;34.43;;;18.67;;
40695;SDS011;40425;51.102;17.208;2023-01-09T05:32:06;36.90;;;19.43;;
40695;SDS011;40425;51.102;17.208;2023-01-09T05:37:07;39.47;;;20.93;;
40695;SDS011;40425;51.102;17.208;2023-01-09T05:42:07;39.50;;;19.10;;
40695;SDS011;40425;51.102;17.208;2023-01-09T05:47:09;40.10;;;20.93;;
40695;SDS011;40425;51.102;17.208;2023-01-09T05:52:10;40.33;;;20.97;;
40695;SDS011;40425;51.102;17.208;2023-01-09T05:57:11;38.23;;;19.43;;
40695;SDS011;40425;51.102;17.208;2023-01-09T06:02:12;36.13;;;18.63;;
40695;SDS011;40425;51.102;17.208;2023-01-09T06:07:13;31.20;;;17.57;;
40695;SDS011;40425;51.102;17.208;2023-01-09T06:12:15;38.37;;;21.43;;
40695;SDS011;40425;51.102;17.208;2023-01-09T06:17:16;41.43;;;21.00;;
40695;SDS011;40425;51.102;17.208;2023-01-09T06:22:17;34.03;;;18.17;;
40695;SDS011;40425;51.102;17.208;2023-01-09T06:27:18;34.53;;;18.93;;
40695;SDS011;40425;51.102;17.208;2023-01-09T06:32:19;36.00;;;19.20;;
40695;SDS011;40425;51.102;17.208;2023-01-09T06:37:20;35.13;;;19.20;;
40695;SDS011;40425;51.102;17.208;2023-01-09T06:42:21;35.07;;;18.80;;
40695;SDS011;40425;51.102;17.208;2023-01-09T06:47:21;34.57;;;19.03;;
40695;SDS011;40425;51.102;17.208;2023-01-09T06:52:22;34.17;;;18.20;;
40695;SDS011;40425;51.102;17.208;2023-01-09T06:57:23;36.50;;;17.40;;
40695;SDS011;40425;51.102;17.208;2023-01-09T07:02:24;35.13;;;18.27;;
40695;SDS011;40425;51.102;17.208;2023-01-09T07:07:25;80.23;;;38.27;;
40695;SDS011;40425;51.102;17.208;2023-01-09T07:12:26;36.00;;;19.10;;
40695;SDS011;40425;51.102;17.208;2023-01-09T07:17:27;35.70;;;18.27;;
40695;SDS011;40425;51.102;17.208;2023-01-09T07:22:27;32.33;;;17.37;;
40695;SDS011;40425;51.102;17.208;2023-01-09T07:27:28;35.87;;;18.27;;
40695;SDS011;40425;51.102;17.208;2023-01-09T07:32:29;42.30;;;20.80;;
40695;SDS011;40425;51.102;17.208;2023-01-09T07:37:30;34.47;;;20.23;;
40695;SDS011;40425;51.102;17.208;2023-01-09T07:42:31;36.50;;;19.20;;
40695;SDS011;40425;51.102;17.208;2023-01-09T07:47:32;35.43;;;19.47;;
40695;SDS011;40425;51.102;17.208;2023-01-09T07:52:33;38.23;;;20.30;;
40695;SDS011;40425;51.102;17.208;2023-01-09T07:57:34;40.43;;;19.93;;
40695;SDS011;40425;51.102;17.208;2023-01-09T08:02:35;39.03;;;19.90;;
40695;SDS011;40425;51.102;17.208;2023-01-09T08:07:35;38.17;;;21.40;;
40695;SDS011;40425;51.102;17.208;2023-01-09T08:12:36;41.63;;;23.33;;
40695;SDS011;40425;51.102;17.208;2023-01-09T08:17:41;43.03;;;21.83;;
40695;SDS011;40425;51.102;17.208;2023-01-09T08:22:45;42.33;;;23.37;;
40695;SDS011;40425;51.102;17.208;2023-01-09T08:27:49;43.47;;;24.13;;
40695;SDS011;40425;51.102;17.208;2023-01-09T08:32:51;46.60;;;25.80;;
40695;SDS011;40425;51.102;17.208;2023-01-09T08:37:53;47.83;;;25.07;;
40695;SDS011;40425;51.102;17.208;2023-01-09T08:42:54;51.37;;;28.20;;
40695;SDS011;40425;51.102;17.208;2023-01-09T08:48:13;46.00;;;26.20;;
40695;SDS011;40425;51.102;17.208;2023-01-09T08:53:17;49.87;;;26.87;;
40695;SDS011;40425;51.102;17.208;2023-01-09T08:58:18;48.03;;;23.83;;
40695;SDS011;40425;51.102;17.208;2023-01-09T09:03:18;42.47;;;24.80;;
40695;SDS011;40425;51.102;17.208;2023-01-09T09:08:20;47.87;;;26.60;;
40695;SDS011;40425;51.102;17.208;2023-01-09T09:13:21;70.13;;;42.23;;
40695;SDS011;40425;51.102;17.208;2023-01-09T09:18:22;52.67;;;28.67;;
40695;SDS011;40425;51.102;17.208;2023-01-09T09:23:23;47.07;;;25.93;;
40695;SDS011;40425;51.102;17.208;2023-01-09T09:28:24;42.63;;;24.93;;
40695;SDS011;40425;51.102;17.208;2023-01-09T09:33:24;44.23;;;25.17;;
40695;SDS011;40425;51.102;17.208;2023-01-09T09:38:26;38.20;;;23.67;;
40695;SDS011;40425;51.102;17.208;2023-01-09T09:49:05;41.70;;;24.23;;
40695;SDS011;40425;51.102;17.208;2023-01-09T09:54:24;70.70;;;36.10;;
40695;SDS011;40425;51.102;17.208;2023-01-09T09:59:33;54.03;;;30.17;;
40695;SDS011;40425;51.102;17.208;2023-01-09T10:04:38;74.73;;;40.10;;
40695;SDS011;40425;51.102;17.208;2023-01-09T10:14:48;51.03;;;28.97;;
40695;SDS011;40425;51.102;17.208;2023-01-09T10:35:31;81.10;;;39.57;;
40695;SDS011;40425;51.102;17.208;2023-01-09T10:41:21;45.43;;;26.03;;
40695;SDS011;40425;51.102;17.208;2023-01-09T10:46:26;47.23;;;29.73;;
40695;SDS011;40425;51.102;17.208;2023-01-09T10:51:34;48.23;;;27.10;;
40695;SDS011;40425;51.102;17.208;2023-01-09T10:56:54;59.38;;;32.40;;
40695;SDS011;40425;51.102;17.208;2023-01-09T11:01:56;57.40;;;31.63;;
40695;SDS011;40425;51.102;17.208;2023-01-09T11:07:01;50.77;;;27.80;;
40695;SDS011;40425;51.102;17.208;2023-01-09T11:12:24;46.70;;;27.47;;
40695;SDS011;40425;51.102;17.208;2023-01-09T11:17:27;44.47;;;26.80;;
40695;SDS011;40425;51.102;17.208;2023-01-09T11:22:28;32.40;;;19.83;;
40695;SDS011;40425;51.102;17.208;2023-01-09T11:27:29;33.07;;;18.97;;
40695;SDS011;40425;51.102;17.208;2023-01-09T11:32:30;31.37;;;19.07;;
40695;SDS011;40425;51.102;17.208;2023-01-09T11:37:32;29.07;;;18.50;;
40695;SDS011;40425;51.102;17.208;2023-01-09T11:42:33;35.88;;;20.13;;
40695;SDS011;40425;51.102;17.208;2023-01-09T11:47:52;34.22;;;21.23;;
40695;SDS011;40425;51.102;17.208;2023-01-09T11:53:40;30.83;;;18.70;;
40695;SDS011;40425;51.102;17.208;2023-01-09T11:58:19;39.13;;;23.77;;
40695;SDS011;40425;51.102;17.208;2023-01-09T12:25:09;29.45;;;18.35;;
40695;SDS011;40425;51.102;17.208;2023-01-09T12:30:50;36.17;;;19.87;;
40695;SDS011;40425;51.102;17.208;2023-01-09T12:36:21;30.35;;;18.48;;
40695;SDS011;40425;51.102;17.208;2023-01-09T12:52:26;26.65;;;17.02;;
40695;SDS011;40425;51.102;17.208;2023-01-09T12:57:37;39.43;;;20.03;;
40695;SDS011;40425;51.102;17.208;2023-01-09T13:03:03;42.33;;;19.40;;
40695;SDS011;40425;51.102;17.208;2023-01-09T13:08:14;30.97;;;16.43;;
40695;SDS011;40425;51.102;17.208;2023-01-09T13:13:43;29.97;;;15.70;;
40695;SDS011;40425;51.102;17.208;2023-01-09T13:18:47;21.63;;;12.18;;
40695;SDS011;40425;51.102;17.208;2023-01-09T13:24:17;16.43;;;10.87;;
40695;SDS011;40425;51.102;17.208;2023-01-09T13:29:23;21.00;;;13.23;;
40695;SDS011;40425;51.102;17.208;2023-01-09T13:34:29;27.43;;;14.23;;
40695;SDS011;40425;51.102;17.208;2023-01-09T13:39:33;8.75;;;6.22;;
40695;SDS011;40425;51.102;17.208;2023-01-09T13:44:34;9.20;;;5.53;;
40695;SDS011;40425;51.102;17.208;2023-01-09T13:59:46;12.57;;;6.35;;
40695;SDS011;40425;51.102;17.208;2023-01-09T14:04:47;12.37;;;7.73;;
40695;SDS011;40425;51.102;17.208;2023-01-09T14:09:58;11.55;;;6.60;;
40695;SDS011;40425;51.102;17.208;2023-01-09T14:15:01;9.63;;;5.95;;
40695;SDS011;40425;51.102;17.208;2023-01-09T14:20:17;12.43;;;7.63;;
40695;SDS011;40425;51.102;17.208;2023-01-09T14:25:27;11.95;;;7.22;;
40695;SDS011;40425;51.102;17.208;2023-01-09T14:41:20;25.17;;;14.07;;
40695;SDS011;40425;51.102;17.208;2023-01-09T14:46:52;15.18;;;8.02;;
40695;SDS011;40425;51.102;17.208;2023-01-09T14:51:55;14.20;;;8.27;;
40695;SDS011;40425;51.102;17.208;2023-01-09T14:57:00;23.10;;;11.80;;
40695;SDS011;40425;51.102;17.208;2023-01-09T15:02:01;18.40;;;9.33;;
40695;SDS011;40425;51.102;17.208;2023-01-09T15:07:02;17.57;;;8.97;;
40695;SDS011;40425;51.102;17.208;2023-01-09T15:12:05;13.13;;;8.23;;
40695;SDS011;40425;51.102;17.208;2023-01-09T15:17:24;18.37;;;7.97;;
40695;SDS011;40425;51.102;17.208;2023-01-09T15:22:34;8.80;;;6.17;;
40695;SDS011;40425;51.102;17.208;2023-01-09T15:27:45;10.63;;;5.00;;
40695;SDS011;40425;51.102;17.208;2023-01-09T15:32:48;6.77;;;4.30;;
40695;SDS011;40425;51.102;17.208;2023-01-09T15:37:51;9.27;;;4.57;;
40695;SDS011;40425;51.102;17.208;2023-01-09T15:42:53;6.13;;;3.95;;
40695;SDS011;40425;51.102;17.208;2023-01-09T15:48:12;8.53;;;4.53;;
40695;SDS011;40425;51.102;17.208;2023-01-09T15:53:19;9.13;;;5.70;;
40695;SDS011;40425;51.102;17.208;2023-01-09T15:58:25;8.53;;;5.00;;
40695;SDS011;40425;51.102;17.208;2023-01-09T16:03:28;7.80;;;4.53;;
40695;SDS011;40425;51.102;17.208;2023-01-09T16:08:39;10.37;;;5.67;;
40695;SDS011;40425;51.102;17.208;2023-01-09T16:13:56;9.73;;;5.87;;
40695;SDS011;40425;51.102;17.208;2023-01-09T16:19:02;7.53;;;4.80;;
40695;SDS011;40425;51.102;17.208;2023-01-09T16:34:40;13.60;;;6.27;;
40695;SDS011;40425;51.102;17.208;2023-01-09T16:39:45;9.40;;;5.53;;
40695;SDS011;40425;51.102;17.208;2023-01-09T16:50:07;13.00;;;6.83;;
40695;SDS011;40425;51.102;17.208;2023-01-09T16:55:12;8.40;;;5.10;;
40695;SDS011;40425;51.102;17.208;2023-01-09T17:00:14;10.13;;;5.80;;
40695;SDS011;40425;51.102;17.208;2023-01-09T17:05:17;9.87;;;6.07;;
40695;SDS011;40425;51.102;17.208;2023-01-09T17:10:19;9.47;;;6.47;;
40695;SDS011;40425;51.102;17.208;2023-01-09T17:15:21;7.17;;;4.77;;
40695;SDS011;40425;51.102;17.208;2023-01-09T17:20:22;7.73;;;4.03;;
40695;SDS011;40425;51.102;17.208;2023-01-09T17:25:24;7.30;;;4.83;;
40695;SDS011;40425;51.102;17.208;2023-01-09T17:30:44;10.03;;;5.67;;
40695;SDS011;40425;51.102;17.208;2023-01-09T17:35:45;9.73;;;5.10;;
40695;SDS011;40425;51.102;17.208;2023-01-09T17:40:47;11.63;;;5.70;;
40695;SDS011;40425;51.102;17.208;2023-01-09T17:45:49;13.93;;;6.87;;
40695;SDS011;40425;51.102;17.208;2023-01-09T17:50:50;10.23;;;6.27;;
40695;SDS011;40425;51.102;17.208;2023-01-09T17:55:52;11.70;;;6.50;;
40695;SDS011;40425;51.102;17.208;2023-01-09T18:00:53;13.07;;;7.53;;
40695;SDS011;40425;51.102;17.208;2023-01-09T18:05:55;15.20;;;8.30;;
40695;SDS011;40425;51.102;17.208;2023-01-09T18:10:56;11.30;;;6.13;;
40695;SDS011;40425;51.102;17.208;2023-01-09T18:16:00;12.50;;;7.20;;
40695;SDS011;40425;51.102;17.208;2023-01-09T18:21:23;12.20;;;6.77;;
40695;SDS011;40425;51.102;17.208;2023-01-09T18:26:25;11.33;;;6.50;;
40695;SDS011;40425;51.102;17.208;2023-01-09T18:31:26;10.97;;;5.43;;
40695;SDS011;40425;51.102;17.208;2023-01-09T18:36:28;10.47;;;6.10;;
40695;SDS011;40425;51.102;17.208;2023-01-09T18:41:29;9.47;;;5.47;;
40695;SDS011;40425;51.102;17.208;2023-01-09T18:46:30;18.53;;;9.53;;
40695;SDS011;40425;51.102;17.208;2023-01-09T18:51:32;15.63;;;7.67;;
40695;SDS011;40425;51.102;17.208;2023-01-09T18:56:35;17.10;;;9.87;;
40695;SDS011;40425;51.102;17.208;2023-01-09T19:01:36;18.60;;;10.00;;
40695;SDS011;40425;51.102;17.208;2023-01-09T19:06:37;21.23;;;13.37;;
40695;SDS011;40425;51.102;17.208;2023-01-09T19:11:38;37.63;;;21.73;;
40695;SDS011;40425;51.102;17.208;2023-01-09T19:16:43;44.07;;;25.40;;
40695;SDS011;40425;51.102;17.208;2023-01-09T19:21:44;43.30;;;25.53;;
40695;SDS011;40425;51.102;17.208;2023-01-09T19:26:45;33.13;;;20.67;;
40695;SDS011;40425;51.102;17.208;2023-01-09T19:31:47;34.60;;;20.13;;
40695;SDS011;40425;51.102;17.208;2023-01-09T19:36:47;34.23;;;18.33;;
40695;SDS011;40425;51.102;17.208;2023-01-09T19:41:48;39.50;;;20.60;;
40695;SDS011;40425;51.102;17.208;2023-01-09T19:46:49;34.03;;;20.53;;
40695;SDS011;40425;51.102;17.208;2023-01-09T19:51:50;33.63;;;18.57;;
40695;SDS011;40425;51.102;17.208;2023-01-09T19:56:54;44.27;;;22.83;;
40695;SDS011;40425;51.102;17.208;2023-01-09T20:01:55;39.27;;;22.67;;
40695;SDS011;40425;51.102;17.208;2023-01-09T20:06:58;68.60;;;35.17;;
40695;SDS011;40425;51.102;17.208;2023-01-09T20:17:15;74.20;;;40.67;;
40695;SDS011;40425;51.102;17.208;2023-01-09T20:22:17;77.37;;;41.53;;
40695;SDS011;40425;51.102;17.208;2023-01-09T20:27:19;75.00;;;41.43;;
40695;SDS011;40425;51.102;17.208;2023-01-09T20:32:20;78.43;;;38.13;;
40695;SDS011;40425;51.102;17.208;2023-01-09T20:37:21;82.77;;;41.83;;
40695;SDS011;40425;51.102;17.208;2023-01-09T20:42:22;67.80;;;34.73;;
40695;SDS011;40425;51.102;17.208;2023-01-09T20:47:23;57.20;;;31.13;;
40695;SDS011;40425;51.102;17.208;2023-01-09T20:52:25;55.83;;;29.97;;
40695;SDS011;40425;51.102;17.208;2023-01-09T20:57:26;51.13;;;25.63;;
40695;SDS011;40425;51.102;17.208;2023-01-09T21:02:30;45.87;;;25.93;;
40695;SDS011;40425;51.102;17.208;2023-01-09T21:07:30;50.33;;;26.50;;
40695;SDS011;40425;51.102;17.208;2023-01-09T21:12:31;63.07;;;31.23;;
40695;SDS011;40425;51.102;17.208;2023-01-09T21:17:37;78.40;;;36.33;;
40695;SDS011;40425;51.102;17.208;2023-01-09T21:22:39;68.00;;;33.30;;
40695;SDS011;40425;51.102;17.208;2023-01-09T21:27:42;59.83;;;32.87;;
40695;SDS011;40425;51.102;17.208;2023-01-09T21:32:46;44.87;;;24.30;;
40695;SDS011;40425;51.102;17.208;2023-01-09T21:37:47;43.40;;;24.90;;
40695;SDS011;40425;51.102;17.208;2023-01-09T21:42:47;47.97;;;26.07;;
40695;SDS011;40425;51.102;17.208;2023-01-09T21:48:07;48.17;;;25.93;;
40695;SDS011;40425;51.102;17.208;2023-01-09T21:53:08;48.97;;;26.87;;
40695;SDS011;40425;51.102;17.208;2023-01-09T21:58:09;57.80;;;30.83;;
40695;SDS011;40425;51.102;17.208;2023-01-09T22:03:13;62.27;;;33.80;;
40695;SDS011;40425;51.102;17.208;2023-01-09T22:08:21;64.30;;;36.27;;
40695;SDS011;40425;51.102;17.208;2023-01-09T22:13:21;73.97;;;40.20;;
40695;SDS011;40425;51.102;17.208;2023-01-09T22:18:22;62.43;;;33.77;;
40695;SDS011;40425;51.102;17.208;2023-01-09T22:23:23;55.17;;;30.07;;
40695;SDS011;40425;51.102;17.208;2023-01-09T22:28:32;56.27;;;30.57;;
40695;SDS011;40425;51.102;17.208;2023-01-09T22:33:35;48.67;;;27.20;;
40695;SDS011;40425;51.102;17.208;2023-01-09T22:38:37;38.80;;;24.13;;
40695;SDS011;40425;51.102;17.208;2023-01-09T22:43:38;43.33;;;23.73;;
40695;SDS011;40425;51.102;17.208;2023-01-09T22:48:38;40.30;;;22.63;;
40695;SDS011;40425;51.102;17.208;2023-01-09T22:53:41;40.90;;;22.43;;
40695;SDS011;40425;51.102;17.208;2023-01-09T22:58:42;40.33;;;23.00;;
40695;SDS011;40425;51.102;17.208;2023-01-09T23:03:43;41.57;;;23.07;;
40695;SDS011;40425;51.102;17.208;2023-01-09T23:08:45;36.77;;;21.77;;
40695;SDS011;40425;51.102;17.208;2023-01-09T23:13:46;36.67;;;20.87;;
40695;SDS011;40425;51.102;17.208;2023-01-09T23:18:47;36.67;;;20.23;;
40695;SDS011;40425;51.102;17.208;2023-01-09T23:23:48;39.17;;;23.13;;
40695;SDS011;40425;51.102;17.208;2023-01-09T23:28:48;41.83;;;24.47;;
40695;SDS011;40425;51.102;17.208;2023-01-09T23:33:49;46.73;;;26.93;;
40695;SDS011;40425;51.102;17.208;2023-01-09T23:38:50;47.97;;;25.20;;
40695;SDS011;40425;51.102;17.208;2023-01-09T23:43:52;41.97;;;22.67;;
40695;SDS011;40425;51.102;17.208;2023-01-09T23:48:52;37.00;;;21.13;;
40695;SDS011;40425;51.102;17.208;2023-01-09T23:53:53;41.10;;;23.50;;
40695;SDS011;40425;51.102;17.208;2023-01-09T23:58:54;41.67;;;24.03;;
